createdAt,value
2022-11-16T00:01:57.218Z,5.86
2022-11-16T00:04:25.363Z,5.95
2022-11-16T00:06:53.515Z,5.95
2022-11-16T00:09:26.809Z,5.95
2022-11-16T00:11:57.763Z,6.06
2022-11-16T00:14:27.329Z,6.12
2022-11-16T00:16:55.721Z,6.16
2022-11-16T00:19:24.003Z,6.15
2022-11-16T00:21:52.072Z,6.01
2022-11-16T00:24:22.197Z,6.20
2022-11-16T00:26:50.156Z,6.26
2022-11-16T00:29:21.188Z,6.29
2022-11-16T00:31:49.229Z,6.34
2022-11-16T00:34:17.460Z,6.09
2022-11-16T00:36:45.685Z,6.42
2022-11-16T00:39:14.000Z,6.27
2022-11-16T00:41:41.985Z,6.15
2022-11-16T00:44:10.212Z,6.05
2022-11-16T00:46:39.964Z,6.10
2022-11-16T00:49:07.945Z,5.99
2022-11-16T00:51:37.183Z,5.98
2022-11-16T00:54:06.300Z,5.92
2022-11-16T00:56:34.422Z,5.89
2022-11-16T00:59:02.345Z,5.90
2022-11-16T01:01:30.506Z,5.91
2022-11-16T01:03:59.829Z,5.86
2022-11-16T01:06:27.787Z,5.84
2022-11-16T01:08:55.739Z,5.86
2022-11-16T01:11:41.456Z,5.84
2022-11-16T01:14:10.543Z,5.86
2022-11-16T01:16:38.474Z,5.83
2022-11-16T01:19:08.598Z,5.77
2022-11-16T01:21:36.837Z,5.83
2022-11-16T01:24:04.998Z,5.80
2022-11-16T01:26:33.164Z,5.85
2022-11-16T01:29:01.209Z,5.78
2022-11-16T01:31:29.140Z,5.81
2022-11-16T01:33:57.052Z,5.86
2022-11-16T01:36:26.366Z,5.88
2022-11-16T01:38:54.277Z,5.85
2022-11-16T01:41:24.639Z,5.79
2022-11-16T01:43:56.605Z,5.77
2022-11-16T01:46:25.534Z,5.87
2022-11-16T01:48:56.177Z,5.78
2022-11-16T01:51:24.404Z,5.78
2022-11-16T01:53:53.720Z,5.81
2022-11-16T01:56:22.237Z,5.72
2022-11-16T01:58:50.388Z,5.79
2022-11-16T02:01:18.366Z,5.87
2022-11-16T02:03:46.335Z,5.91
2022-11-16T02:06:32.324Z,5.76
2022-11-16T02:09:30.320Z,5.74
2022-11-16T02:12:13.264Z,5.78
2022-11-16T02:14:53.948Z,5.79
2022-11-16T02:17:29.044Z,5.77
2022-11-16T02:20:29.304Z,5.75
2022-11-16T02:23:10.516Z,5.83
2022-11-16T02:25:52.750Z,5.82
2022-11-16T02:28:34.532Z,5.78
2022-11-16T02:31:07.484Z,5.75
2022-11-16T02:33:37.586Z,5.71
2022-11-16T02:36:07.477Z,5.74
2022-11-16T02:38:38.563Z,5.77
2022-11-16T02:41:10.328Z,5.76
2022-11-16T02:43:41.559Z,5.74
2022-11-16T02:46:14.972Z,5.74
2022-11-16T02:48:44.871Z,5.73
2022-11-16T02:51:13.155Z,5.68
2022-11-16T02:53:51.188Z,5.72
2022-11-16T02:56:19.415Z,5.68
2022-11-16T02:58:48.219Z,5.73
2022-11-16T03:01:22.269Z,5.67
2022-11-16T03:03:53.201Z,5.64
2022-11-16T03:06:24.753Z,5.60
2022-11-16T03:08:56.845Z,5.59
2022-11-16T03:11:42.701Z,5.60
2022-11-16T03:14:22.060Z,5.64
2022-11-16T03:16:54.155Z,5.60
2022-11-16T03:19:26.753Z,5.62
2022-11-16T03:21:59.419Z,5.59
2022-11-16T03:24:27.508Z,5.61
2022-11-16T03:27:01.201Z,5.59
2022-11-16T03:29:32.297Z,5.54
2022-11-16T03:32:06.398Z,5.54
2022-11-16T03:34:36.308Z,5.54
2022-11-16T03:37:05.407Z,5.54
2022-11-16T03:39:35.261Z,5.55
2022-11-16T03:42:05.363Z,5.56
2022-11-16T03:44:33.282Z,5.60
2022-11-16T03:47:02.684Z,5.55
2022-11-16T03:49:31.622Z,5.55
2022-11-16T03:51:59.732Z,5.62
2022-11-16T03:54:27.736Z,5.59
2022-11-16T03:56:55.679Z,5.56
2022-11-16T03:59:23.790Z,5.55
2022-11-16T04:01:52.628Z,5.59
2022-11-16T04:04:39.278Z,5.57
2022-11-16T04:07:24.920Z,5.62
2022-11-16T04:10:10.071Z,5.63
2022-11-16T04:13:02.807Z,5.58
2022-11-16T04:15:48.028Z,5.66
2022-11-16T04:18:33.362Z,5.80
2022-11-16T04:21:20.756Z,5.79
2022-11-16T04:24:07.079Z,5.75
2022-11-16T04:26:54.736Z,5.72
2022-11-16T04:29:22.669Z,5.64
2022-11-16T04:32:08.045Z,5.66
2022-11-16T04:34:53.268Z,5.67
2022-11-16T04:37:39.984Z,5.61
2022-11-16T04:40:09.423Z,5.62
2022-11-16T04:42:37.308Z,5.58
2022-11-16T04:45:23.076Z,5.55
2022-11-16T04:47:51.059Z,5.58
2022-11-16T04:50:19.486Z,5.64
2022-11-16T04:52:48.801Z,5.64
2022-11-16T04:55:16.964Z,5.63
2022-11-16T04:57:44.905Z,5.60
2022-11-16T05:00:14.131Z,5.64
2022-11-16T05:02:42.132Z,5.62
2022-11-16T05:05:10.626Z,5.70
2022-11-16T05:07:38.633Z,5.66
2022-11-16T05:10:09.039Z,5.62
2022-11-16T05:12:37.114Z,5.59
2022-11-16T05:15:05.786Z,5.60
2022-11-16T05:17:34.007Z,5.58
2022-11-16T05:20:19.701Z,5.55
2022-11-16T05:22:53.808Z,5.54
2022-11-16T05:25:23.331Z,5.53
2022-11-16T05:27:51.296Z,5.53
2022-11-16T05:30:19.269Z,5.56
2022-11-16T05:32:47.610Z,5.56
2022-11-16T05:35:15.551Z,5.61
2022-11-16T05:37:43.507Z,5.61
2022-11-16T05:40:12.625Z,5.51
2022-11-16T05:42:41.937Z,5.63
2022-11-16T05:45:10.554Z,5.68
2022-11-16T05:47:38.485Z,5.70
2022-11-16T05:50:07.322Z,5.68
2022-11-16T05:52:35.227Z,5.69
2022-11-16T05:55:03.177Z,5.84
2022-11-16T05:57:31.069Z,5.87
2022-11-16T06:00:00.503Z,5.81
2022-11-16T06:02:28.394Z,5.79
2022-11-16T06:04:56.324Z,5.86
2022-11-16T06:07:24.383Z,5.87
2022-11-16T06:09:52.372Z,5.89
2022-11-16T06:12:20.278Z,5.85
2022-11-16T06:14:48.909Z,5.83
2022-11-16T06:17:18.266Z,5.99
2022-11-16T06:19:46.567Z,5.92
2022-11-16T06:22:16.308Z,6.00
2022-11-16T06:24:44.213Z,6.11
2022-11-16T06:27:12.152Z,6.05
2022-11-16T06:29:40.146Z,6.03
2022-11-16T06:32:08.032Z,6.06
2022-11-16T06:34:37.280Z,6.04
2022-11-16T06:37:05.580Z,6.06
2022-11-16T06:39:33.533Z,6.17
2022-11-16T06:42:01.430Z,6.13
2022-11-16T06:44:29.437Z,6.21
2022-11-16T06:46:57.427Z,6.25
2022-11-16T06:49:25.350Z,6.17
2022-11-16T06:51:54.744Z,6.15
2022-11-16T06:54:22.901Z,6.06
2022-11-16T06:56:50.832Z,6.00
2022-11-16T06:59:18.776Z,6.12
2022-11-16T07:01:46.757Z,6.14
2022-11-16T07:04:16.037Z,6.24
2022-11-16T07:06:44.228Z,6.12
2022-11-16T07:09:17.117Z,6.21
2022-11-16T07:11:45.086Z,6.22
2022-11-16T07:14:13.349Z,6.34
2022-11-16T07:16:41.272Z,6.37
2022-11-16T07:19:10.124Z,6.66
2022-11-16T07:21:38.787Z,6.56
2022-11-16T07:24:06.999Z,6.76
2022-11-16T07:26:37.597Z,6.44
2022-11-16T07:29:05.678Z,6.59
2022-11-16T07:31:33.588Z,6.55
2022-11-16T07:34:01.526Z,6.54
2022-11-16T07:36:31.980Z,6.56
2022-11-16T07:38:59.909Z,6.73
2022-11-16T07:41:27.837Z,6.85
2022-11-16T07:43:57.631Z,6.85
2022-11-16T07:46:46.063Z,6.86
2022-11-16T07:49:16.009Z,6.53
2022-11-16T07:51:44.445Z,6.50
2022-11-16T07:54:13.380Z,6.53
2022-11-16T07:56:41.421Z,6.56
2022-11-16T07:59:11.184Z,6.54
2022-11-16T08:01:39.399Z,6.63
2022-11-16T08:04:07.372Z,6.70
2022-11-16T08:06:35.508Z,6.61
2022-11-16T08:09:04.047Z,6.67
2022-11-16T08:11:32.044Z,6.74
2022-11-16T08:13:59.973Z,6.75
2022-11-16T08:16:29.272Z,6.62
2022-11-16T08:18:57.243Z,6.91
2022-11-16T08:21:25.191Z,6.95
2022-11-16T08:23:58.208Z,7.14
2022-11-16T08:26:27.142Z,7.21
2022-11-16T08:28:57.126Z,7.21
2022-11-16T08:31:29.197Z,7.34
2022-11-16T08:34:00.988Z,7.33
2022-11-16T08:36:28.929Z,7.26
2022-11-16T08:38:56.849Z,7.19
2022-11-16T08:41:25.121Z,7.46
2022-11-16T08:43:54.015Z,7.45
2022-11-16T08:46:22.132Z,7.31
2022-11-16T08:48:50.115Z,7.36
2022-11-16T08:51:20.882Z,7.39
2022-11-16T08:53:49.695Z,7.38
2022-11-16T08:56:19.439Z,7.43
2022-11-16T08:58:50.267Z,7.53
2022-11-16T09:01:22.740Z,7.55
2022-11-16T09:03:50.949Z,7.67
2022-11-16T09:06:20.500Z,7.71
2022-11-16T09:08:48.495Z,7.78
2022-11-16T09:11:18.163Z,7.49
2022-11-16T09:13:47.075Z,7.58
2022-11-16T09:16:16.736Z,7.49
2022-11-16T09:18:46.350Z,7.32
2022-11-16T09:21:18.048Z,7.38
2022-11-16T09:23:47.794Z,7.48
2022-11-16T09:26:16.569Z,7.42
2022-11-16T09:28:44.580Z,7.36
2022-11-16T09:31:12.496Z,7.58
2022-11-16T09:33:40.471Z,7.58
2022-11-16T09:36:10.039Z,7.58
2022-11-16T09:39:14.001Z,7.48
2022-11-16T09:41:45.201Z,7.48
2022-11-16T09:44:20.276Z,7.33
2022-11-16T09:46:50.640Z,7.29
2022-11-16T09:49:22.121Z,7.38
2022-11-16T09:51:54.436Z,7.41
2022-11-16T09:54:24.519Z,7.24
2022-11-16T09:56:56.617Z,7.32
2022-11-16T09:59:26.894Z,7.24
2022-11-16T10:01:57.280Z,7.15
2022-11-16T10:04:36.453Z,7.05
2022-11-16T10:07:07.671Z,7.20
2022-11-16T10:09:36.724Z,7.33
2022-11-16T10:12:11.963Z,7.48
2022-11-16T10:15:01.744Z,7.61
2022-11-16T10:17:38.689Z,7.65
2022-11-16T10:20:22.277Z,7.70
2022-11-16T10:22:56.827Z,7.58
2022-11-16T10:25:27.170Z,7.59
2022-11-16T10:28:17.845Z,7.61
2022-11-16T10:30:51.321Z,7.85
2022-11-16T10:33:20.911Z,7.82
2022-11-16T10:35:53.587Z,7.94
2022-11-16T10:38:23.578Z,8.09
2022-11-16T10:40:54.862Z,8.18
2022-11-16T10:43:25.501Z,8.37
2022-11-16T10:45:58.093Z,8.46
2022-11-16T10:48:37.167Z,8.52
2022-11-16T10:51:06.057Z,8.76
2022-11-16T10:53:35.598Z,8.42
2022-11-16T10:56:17.498Z,8.36
2022-11-16T10:58:58.170Z,8.44
2022-11-16T11:01:31.177Z,8.38
2022-11-16T11:04:01.192Z,8.42
2022-11-16T11:06:29.284Z,8.14
2022-11-16T11:09:15.874Z,8.19
2022-11-16T11:12:01.211Z,8.00
2022-11-16T11:14:32.532Z,7.94
2022-11-16T11:17:12.111Z,8.02
2022-11-16T11:19:40.087Z,8.05
2022-11-16T11:22:14.699Z,8.20
2022-11-16T11:24:48.071Z,8.25
2022-11-16T11:27:24.017Z,8.12
2022-11-16T11:29:56.805Z,8.09
2022-11-16T11:32:33.620Z,8.03
2022-11-16T11:35:01.931Z,8.01
2022-11-16T11:37:31.890Z,8.21
2022-11-16T11:40:20.244Z,8.11
2022-11-16T11:43:01.539Z,8.26
2022-11-16T11:45:35.869Z,8.23
2022-11-16T11:48:08.276Z,8.33
2022-11-16T11:50:45.930Z,8.25
2022-11-16T11:53:23.424Z,8.34
2022-11-16T11:55:56.820Z,8.14
2022-11-16T11:58:27.994Z,8.17
2022-11-16T12:01:11.941Z,8.31
2022-11-16T12:03:55.431Z,8.30
2022-11-16T12:06:34.240Z,7.91
2022-11-16T12:09:15.128Z,8.01
2022-11-16T12:11:55.482Z,8.26
2022-11-16T12:14:31.999Z,8.28
2022-11-16T12:17:07.723Z,8.25
2022-11-16T12:19:59.786Z,8.21
2022-11-16T12:22:45.560Z,7.96
2022-11-16T12:25:25.285Z,8.06
2022-11-16T12:28:06.497Z,8.11
2022-11-16T12:30:37.258Z,8.20
2022-11-16T12:33:14.715Z,8.02
2022-11-16T12:35:50.364Z,7.85
2022-11-16T12:38:27.983Z,7.74
2022-11-16T12:41:15.783Z,7.88
2022-11-16T12:43:47.379Z,7.76
2022-11-16T12:46:23.198Z,7.70
2022-11-16T12:49:14.894Z,7.83
2022-11-16T12:51:57.144Z,7.89
2022-11-16T12:55:24.112Z,7.82
2022-11-16T12:57:48.379Z,7.77
2022-11-16T13:00:16.971Z,7.76
2022-11-16T13:03:14.909Z,7.82
2022-11-16T13:05:54.836Z,7.74
2022-11-16T13:08:34.000Z,7.81
2022-11-16T13:11:05.910Z,7.75
2022-11-16T13:13:36.755Z,7.72
2022-11-16T13:16:06.871Z,7.64
2022-11-16T13:18:37.078Z,7.76
2022-11-16T13:21:12.268Z,7.82
2022-11-16T13:23:47.736Z,7.90
2022-11-16T13:26:22.301Z,7.74
2022-11-16T13:28:56.231Z,7.83
2022-11-16T13:31:31.500Z,7.83
2022-11-16T13:34:01.967Z,7.71
2022-11-16T13:36:45.178Z,7.69
2022-11-16T13:39:21.986Z,7.65
2022-11-16T13:41:51.213Z,7.80
2022-11-16T13:44:28.246Z,7.72
2022-11-16T13:47:04.235Z,7.76
2022-11-16T13:49:35.368Z,7.87
2022-11-16T13:52:22.686Z,7.98
2022-11-16T13:54:53.520Z,7.96
2022-11-16T13:57:25.675Z,7.82
2022-11-16T14:00:09.474Z,7.77
2022-11-16T14:02:38.406Z,7.71
2022-11-16T14:05:15.529Z,7.61
2022-11-16T14:07:47.377Z,7.70
2022-11-16T14:10:48.793Z,7.46
2022-11-16T14:13:38.480Z,7.31
2022-11-16T14:16:36.473Z,6.95
2022-11-16T14:19:06.164Z,6.91
2022-11-16T14:21:43.183Z,6.84
2022-11-16T14:24:20.652Z,6.66
2022-11-16T14:26:54.796Z,6.59
2022-11-16T14:29:49.216Z,6.52
2022-11-16T14:32:21.308Z,6.54
2022-11-16T14:34:51.201Z,6.52
2022-11-16T14:37:31.582Z,6.64
2022-11-16T14:40:04.388Z,6.75
2022-11-16T14:42:54.368Z,6.46
2022-11-16T14:45:25.798Z,6.48
2022-11-16T14:47:54.862Z,6.53
2022-11-16T14:50:24.305Z,6.45
2022-11-16T14:52:54.732Z,6.45
2022-11-16T14:55:26.661Z,6.63
2022-11-16T14:58:08.760Z,6.76
2022-11-16T15:00:37.495Z,6.65
2022-11-16T15:03:06.162Z,6.65
2022-11-16T15:05:35.804Z,6.94
2022-11-16T15:08:14.687Z,7.02
2022-11-16T15:10:51.079Z,6.95
2022-11-16T15:13:22.288Z,6.89
2022-11-16T15:15:52.685Z,6.79
2022-11-16T15:18:22.070Z,6.79
2022-11-16T15:20:51.800Z,6.75
2022-11-16T15:23:23.790Z,6.75
2022-11-16T15:25:56.650Z,6.77
2022-11-16T15:28:27.126Z,6.88
2022-11-16T15:30:56.972Z,6.73
2022-11-16T15:33:27.275Z,6.76
2022-11-16T15:35:56.264Z,6.70
2022-11-16T15:38:25.801Z,6.68
2022-11-16T15:40:56.167Z,6.68
2022-11-16T15:43:25.614Z,6.60
2022-11-16T15:45:54.296Z,6.72
2022-11-16T15:48:23.972Z,6.58
2022-11-16T15:51:04.110Z,6.46
2022-11-16T15:53:38.145Z,6.63
2022-11-16T15:56:10.307Z,6.48
2022-11-16T15:58:39.920Z,6.42
2022-11-16T16:01:08.208Z,6.42
2022-11-16T16:03:37.783Z,6.75
2022-11-16T16:06:06.487Z,6.72
2022-11-16T16:08:35.544Z,6.81
2022-11-16T16:11:07.805Z,6.58
2022-11-16T16:13:38.399Z,6.52
2022-11-16T16:16:28.023Z,6.51
2022-11-16T16:18:58.215Z,6.40
2022-11-16T16:21:27.684Z,6.50
2022-11-16T16:23:56.844Z,6.53
2022-11-16T16:26:26.158Z,6.52
2022-11-16T16:28:54.040Z,6.47
2022-11-16T16:31:21.997Z,6.52
2022-11-16T16:33:49.878Z,6.49
2022-11-16T16:36:17.890Z,6.52
2022-11-16T16:38:45.759Z,6.34
2022-11-16T16:41:23.746Z,6.35
2022-11-16T16:43:53.740Z,6.31
2022-11-16T16:46:21.850Z,6.53
2022-11-16T16:48:49.730Z,6.74
2022-11-16T16:51:17.632Z,6.65
2022-11-16T16:53:45.560Z,6.72
2022-11-16T16:56:16.066Z,6.42
2022-11-16T16:58:44.002Z,6.33
2022-11-16T17:01:14.168Z,6.40
2022-11-16T17:03:42.109Z,6.25
2022-11-16T17:06:10.065Z,6.22
2022-11-16T17:08:38.972Z,6.13
2022-11-16T17:11:06.911Z,6.19
2022-11-16T17:13:35.162Z,6.12
2022-11-16T17:16:06.128Z,6.09
2022-11-16T17:18:35.419Z,6.16
2022-11-16T17:21:07.044Z,6.24
2022-11-16T17:23:35.396Z,6.29
2022-11-16T17:26:05.154Z,6.27
2022-11-16T17:28:33.071Z,6.34
2022-11-16T17:31:05.283Z,6.39
2022-11-16T17:33:36.444Z,6.38
2022-11-16T17:36:05.593Z,6.51
2022-11-16T17:38:34.303Z,6.73
2022-11-16T17:41:06.637Z,6.59
2022-11-16T17:43:35.377Z,6.46
2022-11-16T17:46:07.760Z,6.39
2022-11-16T17:48:38.027Z,6.42
2022-11-16T17:51:06.602Z,6.44
2022-11-16T17:53:35.606Z,6.47
2022-11-16T17:56:04.324Z,6.34
2022-11-16T17:58:32.986Z,6.37
2022-11-16T18:01:01.028Z,6.40
2022-11-16T18:03:29.444Z,6.47
2022-11-16T18:06:04.943Z,6.37
2022-11-16T18:08:33.187Z,6.33
2022-11-16T18:11:05.289Z,6.38
2022-11-16T18:13:33.859Z,6.43
2022-11-16T18:16:06.302Z,6.39
2022-11-16T18:18:34.265Z,6.56
2022-11-16T18:21:03.557Z,6.49
2022-11-16T18:23:31.663Z,6.46
2022-11-16T18:25:59.733Z,6.40
2022-11-16T18:28:27.660Z,6.41
2022-11-16T18:31:03.367Z,6.40
2022-11-16T18:33:31.277Z,6.43
2022-11-16T18:35:59.307Z,6.41
2022-11-16T18:38:28.627Z,6.28
2022-11-16T18:41:07.389Z,6.29
2022-11-16T18:43:35.898Z,6.24
2022-11-16T18:46:04.297Z,6.33
2022-11-16T18:48:32.320Z,6.46
2022-11-16T18:51:00.403Z,6.40
2022-11-16T18:53:30.957Z,6.28
2022-11-16T18:55:59.214Z,6.25
2022-11-16T19:01:17.784Z,6.46
2022-11-16T19:03:45.966Z,6.19
2022-11-16T19:06:14.904Z,6.17
2022-11-16T19:08:46.905Z,6.08
2022-11-16T19:11:18.540Z,6.07
2022-11-16T19:13:46.963Z,6.10
2022-11-16T19:16:15.043Z,6.19
2022-11-16T19:18:42.956Z,6.28
2022-11-16T19:21:12.263Z,6.15
2022-11-16T19:23:41.375Z,6.15
2022-11-16T19:26:12.697Z,6.17
2022-11-16T19:28:41.752Z,6.06
2022-11-16T19:31:10.537Z,6.08
2022-11-16T19:33:39.139Z,6.11
2022-11-16T19:36:08.660Z,6.12
2022-11-16T19:38:36.798Z,6.23
2022-11-16T19:41:05.064Z,6.24
2022-11-16T19:43:34.744Z,6.13
2022-11-16T19:46:04.525Z,6.01
2022-11-16T19:48:33.114Z,6.17
2022-11-16T19:51:06.323Z,6.03
2022-11-16T19:53:34.736Z,5.90
2022-11-16T19:56:03.065Z,5.89
2022-11-16T19:58:31.995Z,5.82
2022-11-16T20:01:06.224Z,5.88
2022-11-16T20:03:34.910Z,5.95
2022-11-16T20:06:08.208Z,5.82
2022-11-16T20:08:36.316Z,5.82
2022-11-16T20:11:11.727Z,5.75
2022-11-16T20:13:39.649Z,5.94
2022-11-16T20:16:11.031Z,5.78
2022-11-16T20:18:39.484Z,5.77
2022-11-16T20:21:07.960Z,5.73
2022-11-16T20:23:37.522Z,5.73
2022-11-16T20:26:06.457Z,5.74
2022-11-16T20:28:38.170Z,5.78
2022-11-16T20:31:11.077Z,5.76
2022-11-16T20:33:39.101Z,5.73
2022-11-16T20:36:08.802Z,5.64
2022-11-16T20:38:37.900Z,5.65
2022-11-16T20:41:10.530Z,5.67
2022-11-16T20:43:39.343Z,5.66
2022-11-16T20:46:07.768Z,5.82
2022-11-16T20:48:37.513Z,5.97
2022-11-16T20:51:05.797Z,5.79
2022-11-16T20:53:34.164Z,5.66
2022-11-16T20:56:03.184Z,5.58
2022-11-16T20:58:31.323Z,5.50
2022-11-16T21:01:00.891Z,5.40
2022-11-16T21:03:29.147Z,5.34
2022-11-16T21:05:58.409Z,5.31
2022-11-16T21:08:27.247Z,5.09
2022-11-16T21:10:55.332Z,5.04
2022-11-16T21:13:40.552Z,4.94
2022-11-16T21:16:11.375Z,4.97
2022-11-16T21:18:40.040Z,4.93
2022-11-16T21:21:11.122Z,4.85
2022-11-16T21:23:40.899Z,4.83
2022-11-16T21:26:11.243Z,4.79
2022-11-16T21:28:39.416Z,4.71
2022-11-16T21:31:08.756Z,4.67
2022-11-16T21:33:37.202Z,4.73
2022-11-16T21:36:06.056Z,4.60
2022-11-16T21:38:35.655Z,4.50
2022-11-16T21:41:04.400Z,4.45
2022-11-16T21:43:33.784Z,4.42
2022-11-16T21:46:03.005Z,4.27
2022-11-16T21:48:33.110Z,4.27
2022-11-16T21:51:01.722Z,4.28
2022-11-16T21:53:29.839Z,4.30
2022-11-16T21:55:59.411Z,4.23
2022-11-16T21:58:27.495Z,4.52
2022-11-16T22:00:56.291Z,4.31
2022-11-16T22:03:26.510Z,4.14
2022-11-16T22:06:12.431Z,4.01
2022-11-16T22:08:40.887Z,4.04
2022-11-16T22:11:10.768Z,4.03
2022-11-16T22:13:39.353Z,3.93
2022-11-16T22:16:08.016Z,3.89
2022-11-16T22:18:36.476Z,3.90
2022-11-16T22:21:04.577Z,3.86
2022-11-16T22:23:32.939Z,3.73
2022-11-16T22:26:05.584Z,3.62
2022-11-16T22:28:35.475Z,3.45
2022-11-16T22:31:04.214Z,3.45
2022-11-16T22:33:32.421Z,3.69
2022-11-16T22:36:00.544Z,3.66
2022-11-16T22:38:28.612Z,3.55
2022-11-16T22:40:57.525Z,3.52
2022-11-16T22:43:26.912Z,3.60
2022-11-16T22:45:59.987Z,3.47
2022-11-16T22:48:32.367Z,3.39
2022-11-16T22:51:04.562Z,3.42
2022-11-16T22:53:32.895Z,3.26
2022-11-16T22:56:05.834Z,3.15
2022-11-16T22:58:33.750Z,3.32
2022-11-16T23:01:03.063Z,3.23
2022-11-16T23:03:31.914Z,3.15
2022-11-16T23:06:00.579Z,3.24
2022-11-16T23:08:28.842Z,3.51
2022-11-16T23:11:19.152Z,3.53
2022-11-16T23:14:04.392Z,3.35
2022-11-16T23:16:33.800Z,3.43
2022-11-16T23:19:01.689Z,3.51
2022-11-16T23:21:58.563Z,3.40
2022-11-16T23:24:44.112Z,3.38
2022-11-16T23:27:38.028Z,3.49
2022-11-16T23:30:12.407Z,3.27
2022-11-16T23:32:42.874Z,3.43
2022-11-16T23:35:11.246Z,3.61
2022-11-16T23:37:51.681Z,3.28
2022-11-16T23:40:19.758Z,3.10
2022-11-16T23:43:05.168Z,3.31
2022-11-16T23:45:33.089Z,3.18
2022-11-16T23:48:02.467Z,2.87
2022-11-16T23:50:30.448Z,2.79
2022-11-16T23:52:58.317Z,2.81
2022-11-16T23:55:26.688Z,2.98
2022-11-16T23:57:54.683Z,2.86
